Terminal Aerodrome Forecast
Issued by NWS Cleveland, OH

Home | Current Version | Previous Version | Text Only | Print | Product List | Glossary On
Versions: 1 2 3 4 5 6 7 8 9 10 11 12 13 14 15 16 17 18 19 20
749
FTUS41 KCLE 240539
TAFTOL
TAF
KTOL 240539Z 2406/2506 32004KT P6SM OVC012
     FM241100 05004KT P6SM SCT008 OVC012
     FM241400 07008KT 6SM -RA OVC010
     FM241900 08012KT P6SM SCT010 OVC015
     FM242300 08011KT 5SM -RA SCT006 OVC010
     FM250300 11010KT 2SM -RA BR OVC003=

USA.gov is the U.S. government's official web portal to all federal, state and local government web resources and services.